sensor_id;sensor_type;location;lat;lon;timestamp;temperature;humidity
21338;DHT22;10827;50.878;4.382;2022-08-19T00:01:42;22.10;1.00
21338;DHT22;10827;50.878;4.382;2022-08-19T00:04:10;22.00;1.00
21338;DHT22;10827;50.878;4.382;2022-08-19T00:06:38;21.90;1.00
21338;DHT22;10827;50.878;4.382;2022-08-19T00:09:06;21.70;1.00
21338;DHT22;10827;50.878;4.382;2022-08-19T00:11:33;21.40;9.80
21338;DHT22;10827;50.878;4.382;2022-08-19T00:14:00;21.50;13.80
21338;DHT22;10827;50.878;4.382;2022-08-19T00:18:52;21.50;12.00
21338;DHT22;10827;50.878;4.382;2022-08-19T00:21:18;21.80;8.00
21338;DHT22;10827;50.878;4.382;2022-08-19T00:23:44;21.40;17.00
21338;DHT22;10827;50.878;4.382;2022-08-19T00:26:11;21.20;25.10
21338;DHT22;10827;50.878;4.382;2022-08-19T00:28:36;21.40;31.30
21338;DHT22;10827;50.878;4.382;2022-08-19T00:31:04;21.10;38.20
21338;DHT22;10827;50.878;4.382;2022-08-19T00:33:31;21.10;34.40
21338;DHT22;10827;50.878;4.382;2022-08-19T00:36:01;21.40;28.70
21338;DHT22;10827;50.878;4.382;2022-08-19T00:38:28;21.30;38.40
21338;DHT22;10827;50.878;4.382;2022-08-19T00:40:54;21.10;50.60
21338;DHT22;10827;50.878;4.382;2022-08-19T00:43:23;21.10;48.10
21338;DHT22;10827;50.878;4.382;2022-08-19T00:45:49;21.40;41.40
21338;DHT22;10827;50.878;4.382;2022-08-19T00:48:16;21.20;51.20
21338;DHT22;10827;50.878;4.382;2022-08-19T00:50:43;21.20;56.20
21338;DHT22;10827;50.878;4.382;2022-08-19T00:53:14;21.10;53.00
21338;DHT22;10827;50.878;4.382;2022-08-19T00:55:42;21.10;63.80
21338;DHT22;10827;50.878;4.382;2022-08-19T00:58:13;21.20;49.50
21338;DHT22;10827;50.878;4.382;2022-08-19T01:00:40;21.50;45.50
21338;DHT22;10827;50.878;4.382;2022-08-19T01:03:18;21.30;50.20
21338;DHT22;10827;50.878;4.382;2022-08-19T01:05:45;21.40;46.30
21338;DHT22;10827;50.878;4.382;2022-08-19T01:08:12;21.50;53.50
21338;DHT22;10827;50.878;4.382;2022-08-19T01:10:47;21.00;66.20
21338;DHT22;10827;50.878;4.382;2022-08-19T01:13:16;21.20;65.90
21338;DHT22;10827;50.878;4.382;2022-08-19T01:15:50;21.20;45.60
21338;DHT22;10827;50.878;4.382;2022-08-19T01:18:18;21.10;56.90
21338;DHT22;10827;50.878;4.382;2022-08-19T01:20:45;21.20;50.60
21338;DHT22;10827;50.878;4.382;2022-08-19T01:23:12;20.90;48.70
21338;DHT22;10827;50.878;4.382;2022-08-19T01:25:46;20.90;63.30
21338;DHT22;10827;50.878;4.382;2022-08-19T01:28:25;21.00;64.20
21338;DHT22;10827;50.878;4.382;2022-08-19T01:30:54;20.70;70.80
21338;DHT22;10827;50.878;4.382;2022-08-19T01:33:20;20.70;63.30
21338;DHT22;10827;50.878;4.382;2022-08-19T01:35:47;21.00;55.30
21338;DHT22;10827;50.878;4.382;2022-08-19T01:38:26;20.80;66.90
21338;DHT22;10827;50.878;4.382;2022-08-19T01:40:57;20.50;76.20
21338;DHT22;10827;50.878;4.382;2022-08-19T01:45:50;20.40;85.40
21338;DHT22;10827;50.878;4.382;2022-08-19T01:48:16;20.20;90.30
21338;DHT22;10827;50.878;4.382;2022-08-19T01:50:42;20.40;86.00
21338;DHT22;10827;50.878;4.382;2022-08-19T01:53:11;20.20;79.50
21338;DHT22;10827;50.878;4.382;2022-08-19T01:55:40;20.20;79.10
21338;DHT22;10827;50.878;4.382;2022-08-19T01:58:12;20.50;72.80
21338;DHT22;10827;50.878;4.382;2022-08-19T02:00:38;20.10;56.20
21338;DHT22;10827;50.878;4.382;2022-08-19T02:03:04;20.10;59.60
21338;DHT22;10827;50.878;4.382;2022-08-19T02:05:31;19.90;73.20
21338;DHT22;10827;50.878;4.382;2022-08-19T02:07:57;20.00;70.80
21338;DHT22;10827;50.878;4.382;2022-08-19T02:10:24;20.00;79.50
21338;DHT22;10827;50.878;4.382;2022-08-19T02:15:18;19.80;57.40
21338;DHT22;10827;50.878;4.382;2022-08-19T02:17:48;19.50;73.40
21338;DHT22;10827;50.878;4.382;2022-08-19T02:20:14;19.60;72.20
21338;DHT22;10827;50.878;4.382;2022-08-19T02:22:40;19.70;59.30
21338;DHT22;10827;50.878;4.382;2022-08-19T02:25:12;19.90;62.70
21338;DHT22;10827;50.878;4.382;2022-08-19T02:27:39;19.60;56.30
21338;DHT22;10827;50.878;4.382;2022-08-19T02:30:07;19.40;56.90
21338;DHT22;10827;50.878;4.382;2022-08-19T02:32:33;19.50;64.60
21338;DHT22;10827;50.878;4.382;2022-08-19T02:34:59;19.50;70.10
21338;DHT22;10827;50.878;4.382;2022-08-19T02:37:26;19.50;77.60
21338;DHT22;10827;50.878;4.382;2022-08-19T02:40:12;19.50;85.00
21338;DHT22;10827;50.878;4.382;2022-08-19T02:42:38;19.60;79.10
21338;DHT22;10827;50.878;4.382;2022-08-19T02:45:04;19.60;71.20
21338;DHT22;10827;50.878;4.382;2022-08-19T02:47:31;19.50;65.50
21338;DHT22;10827;50.878;4.382;2022-08-19T02:49:56;19.70;63.70
21338;DHT22;10827;50.878;4.382;2022-08-19T02:52:22;19.50;63.30
21338;DHT22;10827;50.878;4.382;2022-08-19T02:54:48;19.70;70.10
21338;DHT22;10827;50.878;4.382;2022-08-19T02:57:15;19.50;75.10
21338;DHT22;10827;50.878;4.382;2022-08-19T02:59:40;19.40;76.40
21338;DHT22;10827;50.878;4.382;2022-08-19T03:02:06;19.40;73.50
21338;DHT22;10827;50.878;4.382;2022-08-19T03:04:32;19.40;81.80
21338;DHT22;10827;50.878;4.382;2022-08-19T03:06:57;19.30;88.70
21338;DHT22;10827;50.878;4.382;2022-08-19T03:09:23;19.00;91.30
21338;DHT22;10827;50.878;4.382;2022-08-19T03:11:49;19.10;94.80
21338;DHT22;10827;50.878;4.382;2022-08-19T03:14:15;19.00;96.30
21338;DHT22;10827;50.878;4.382;2022-08-19T03:16:49;18.70;97.20
21338;DHT22;10827;50.878;4.382;2022-08-19T03:19:18;19.20;96.90
21338;DHT22;10827;50.878;4.382;2022-08-19T03:21:45;19.10;97.00
21338;DHT22;10827;50.878;4.382;2022-08-19T03:24:12;19.10;97.70
21338;DHT22;10827;50.878;4.382;2022-08-19T03:26:40;19.10;97.00
21338;DHT22;10827;50.878;4.382;2022-08-19T03:29:07;18.90;95.20
21338;DHT22;10827;50.878;4.382;2022-08-19T03:31:34;18.70;99.90
21338;DHT22;10827;50.878;4.382;2022-08-19T03:34:00;19.10;99.90
21338;DHT22;10827;50.878;4.382;2022-08-19T03:36:28;18.80;93.80
21338;DHT22;10827;50.878;4.382;2022-08-19T03:38:57;19.30;99.90
21338;DHT22;10827;50.878;4.382;2022-08-19T03:41:31;18.80;99.90
21338;DHT22;10827;50.878;4.382;2022-08-19T03:43:58;18.70;99.90
21338;DHT22;10827;50.878;4.382;2022-08-19T03:46:26;18.60;99.90
21338;DHT22;10827;50.878;4.382;2022-08-19T03:48:54;18.60;99.90
21338;DHT22;10827;50.878;4.382;2022-08-19T03:51:35;19.00;99.90
21338;DHT22;10827;50.878;4.382;2022-08-19T03:54:03;18.60;99.90
21338;DHT22;10827;50.878;4.382;2022-08-19T03:56:30;18.70;99.90
21338;DHT22;10827;50.878;4.382;2022-08-19T03:58:56;18.50;99.90
21338;DHT22;10827;50.878;4.382;2022-08-19T04:01:24;18.50;99.90
21338;DHT22;10827;50.878;4.382;2022-08-19T04:03:52;18.60;99.90
21338;DHT22;10827;50.878;4.382;2022-08-19T04:06:26;18.30;99.90
21338;DHT22;10827;50.878;4.382;2022-08-19T04:08:53;18.10;99.90
21338;DHT22;10827;50.878;4.382;2022-08-19T04:11:23;18.20;99.90
21338;DHT22;10827;50.878;4.382;2022-08-19T04:13:51;18.00;99.90
21338;DHT22;10827;50.878;4.382;2022-08-19T04:16:19;18.10;99.90
21338;DHT22;10827;50.878;4.382;2022-08-19T04:18:46;18.10;99.90
21338;DHT22;10827;50.878;4.382;2022-08-19T04:21:21;18.10;99.90
21338;DHT22;10827;50.878;4.382;2022-08-19T04:23:47;18.20;99.90
21338;DHT22;10827;50.878;4.382;2022-08-19T04:26:18;18.20;99.90
21338;DHT22;10827;50.878;4.382;2022-08-19T04:28:45;18.20;99.90
21338;DHT22;10827;50.878;4.382;2022-08-19T04:31:17;18.10;99.90
21338;DHT22;10827;50.878;4.382;2022-08-19T04:33:43;18.10;99.90
21338;DHT22;10827;50.878;4.382;2022-08-19T04:36:17;17.90;99.90
21338;DHT22;10827;50.878;4.382;2022-08-19T04:41:12;17.90;99.90
21338;DHT22;10827;50.878;4.382;2022-08-19T04:43:56;18.10;99.90
21338;DHT22;10827;50.878;4.382;2022-08-19T04:51:14;17.80;99.90
21338;DHT22;10827;50.878;4.382;2022-08-19T04:53:41;17.70;99.90
21338;DHT22;10827;50.878;4.382;2022-08-19T04:56:13;17.70;99.90
21338;DHT22;10827;50.878;4.382;2022-08-19T04:58:42;17.60;99.90
21338;DHT22;10827;50.878;4.382;2022-08-19T05:01:09;17.80;99.90
21338;DHT22;10827;50.878;4.382;2022-08-19T05:03:37;17.80;99.90
21338;DHT22;10827;50.878;4.382;2022-08-19T05:06:05;18.20;99.90
21338;DHT22;10827;50.878;4.382;2022-08-19T05:08:34;17.90;99.90
21338;DHT22;10827;50.878;4.382;2022-08-19T05:13:26;17.90;99.90
21338;DHT22;10827;50.878;4.382;2022-08-19T05:15:57;18.10;99.90
21338;DHT22;10827;50.878;4.382;2022-08-19T05:18:23;17.90;99.90
21338;DHT22;10827;50.878;4.382;2022-08-19T05:21:09;17.60;99.90
21338;DHT22;10827;50.878;4.382;2022-08-19T05:23:54;17.80;99.90
21338;DHT22;10827;50.878;4.382;2022-08-19T05:28:46;17.70;99.90
21338;DHT22;10827;50.878;4.382;2022-08-19T05:31:12;17.80;99.90
21338;DHT22;10827;50.878;4.382;2022-08-19T05:33:38;17.90;99.90
21338;DHT22;10827;50.878;4.382;2022-08-19T05:36:06;17.90;99.90
21338;DHT22;10827;50.878;4.382;2022-08-19T05:38:34;17.90;99.90
21338;DHT22;10827;50.878;4.382;2022-08-19T05:41:19;17.80;99.90
21338;DHT22;10827;50.878;4.382;2022-08-19T05:46:19;17.80;99.90
21338;DHT22;10827;50.878;4.382;2022-08-19T05:48:45;18.00;99.90
21338;DHT22;10827;50.878;4.382;2022-08-19T05:51:12;16.60;99.90
21338;DHT22;10827;50.878;4.382;2022-08-19T05:53:38;18.10;99.90
21338;DHT22;10827;50.878;4.382;2022-08-19T05:56:08;18.20;99.90
21338;DHT22;10827;50.878;4.382;2022-08-19T05:58:35;18.40;99.90
21338;DHT22;10827;50.878;4.382;2022-08-19T06:01:04;18.50;99.90
21338;DHT22;10827;50.878;4.382;2022-08-19T06:06:04;18.30;99.90
21338;DHT22;10827;50.878;4.382;2022-08-19T06:08:31;18.60;99.90
21338;DHT22;10827;50.878;4.382;2022-08-19T06:13:23;19.00;99.90
21338;DHT22;10827;50.878;4.382;2022-08-19T06:15:49;17.30;99.90
21338;DHT22;10827;50.878;4.382;2022-08-19T06:18:15;18.80;99.90
21338;DHT22;10827;50.878;4.382;2022-08-19T06:20:41;18.70;99.90
21338;DHT22;10827;50.878;4.382;2022-08-19T06:23:08;18.70;99.90
21338;DHT22;10827;50.878;4.382;2022-08-19T06:25:35;19.00;99.90
21338;DHT22;10827;50.878;4.382;2022-08-19T06:28:04;18.90;99.90
21338;DHT22;10827;50.878;4.382;2022-08-19T06:30:29;19.30;99.90
21338;DHT22;10827;50.878;4.382;2022-08-19T06:32:55;19.40;97.00
21338;DHT22;10827;50.878;4.382;2022-08-19T06:35:21;19.30;99.90
21338;DHT22;10827;50.878;4.382;2022-08-19T06:37:47;19.50;90.40
21338;DHT22;10827;50.878;4.382;2022-08-19T06:40:14;19.60;95.00
21338;DHT22;10827;50.878;4.382;2022-08-19T06:42:39;19.80;83.30
21338;DHT22;10827;50.878;4.382;2022-08-19T06:45:06;19.60;97.10
21338;DHT22;10827;50.878;4.382;2022-08-19T06:47:33;19.40;99.90
21338;DHT22;10827;50.878;4.382;2022-08-19T06:50:00;19.20;99.90
21338;DHT22;10827;50.878;4.382;2022-08-19T06:52:30;19.20;99.90
21338;DHT22;10827;50.878;4.382;2022-08-19T06:54:55;19.30;99.90
21338;DHT22;10827;50.878;4.382;2022-08-19T06:57:25;19.20;99.90
21338;DHT22;10827;50.878;4.382;2022-08-19T06:59:52;19.10;99.90
21338;DHT22;10827;50.878;4.382;2022-08-19T07:02:18;19.20;99.90
21338;DHT22;10827;50.878;4.382;2022-08-19T07:04:45;19.10;99.90
21338;DHT22;10827;50.878;4.382;2022-08-19T07:07:13;19.20;99.90
21338;DHT22;10827;50.878;4.382;2022-08-19T07:09:42;19.30;99.90
21338;DHT22;10827;50.878;4.382;2022-08-19T07:12:10;19.20;99.90
21338;DHT22;10827;50.878;4.382;2022-08-19T07:14:37;19.00;99.90
21338;DHT22;10827;50.878;4.382;2022-08-19T07:17:06;19.30;99.90
21338;DHT22;10827;50.878;4.382;2022-08-19T07:19:33;19.10;99.90
21338;DHT22;10827;50.878;4.382;2022-08-19T07:22:02;19.30;99.90
21338;DHT22;10827;50.878;4.382;2022-08-19T07:24:28;19.50;99.90
21338;DHT22;10827;50.878;4.382;2022-08-19T07:26:57;19.60;99.90
21338;DHT22;10827;50.878;4.382;2022-08-19T07:29:26;19.70;99.90
21338;DHT22;10827;50.878;4.382;2022-08-19T07:31:53;19.70;99.90
21338;DHT22;10827;50.878;4.382;2022-08-19T07:34:21;19.80;99.90
21338;DHT22;10827;50.878;4.382;2022-08-19T07:36:48;19.70;99.90
21338;DHT22;10827;50.878;4.382;2022-08-19T07:39:28;20.10;99.90
21338;DHT22;10827;50.878;4.382;2022-08-19T07:41:55;20.40;99.90
21338;DHT22;10827;50.878;4.382;2022-08-19T07:44:22;20.20;99.40
21338;DHT22;10827;50.878;4.382;2022-08-19T07:46:55;20.20;99.90
21338;DHT22;10827;50.878;4.382;2022-08-19T07:49:22;20.00;99.90
21338;DHT22;10827;50.878;4.382;2022-08-19T07:51:57;20.20;99.90
21338;DHT22;10827;50.878;4.382;2022-08-19T07:54:25;20.20;99.90
21338;DHT22;10827;50.878;4.382;2022-08-19T07:56:52;20.00;99.90
21338;DHT22;10827;50.878;4.382;2022-08-19T07:59:20;20.10;99.90
21338;DHT22;10827;50.878;4.382;2022-08-19T08:01:47;20.00;99.90
21338;DHT22;10827;50.878;4.382;2022-08-19T08:04:13;20.20;99.90
21338;DHT22;10827;50.878;4.382;2022-08-19T08:06:57;20.20;99.90
21338;DHT22;10827;50.878;4.382;2022-08-19T08:09:43;20.00;99.90
21338;DHT22;10827;50.878;4.382;2022-08-19T08:12:13;20.20;99.90
21338;DHT22;10827;50.878;4.382;2022-08-19T08:14:46;20.40;99.90
21338;DHT22;10827;50.878;4.382;2022-08-19T08:17:17;20.50;99.90
21338;DHT22;10827;50.878;4.382;2022-08-19T08:19:45;20.80;99.90
21338;DHT22;10827;50.878;4.382;2022-08-19T08:22:13;20.60;98.90
21338;DHT22;10827;50.878;4.382;2022-08-19T08:25:02;20.60;92.20
21338;DHT22;10827;50.878;4.382;2022-08-19T08:27:28;20.60;99.90
21338;DHT22;10827;50.878;4.382;2022-08-19T08:29:57;20.50;98.40
21338;DHT22;10827;50.878;4.382;2022-08-19T08:32:23;20.50;99.90
21338;DHT22;10827;50.878;4.382;2022-08-19T08:34:48;20.80;99.90
21338;DHT22;10827;50.878;4.382;2022-08-19T08:37:14;20.60;99.90
21338;DHT22;10827;50.878;4.382;2022-08-19T08:39:40;20.80;99.90
21338;DHT22;10827;50.878;4.382;2022-08-19T08:42:32;20.80;99.90
21338;DHT22;10827;50.878;4.382;2022-08-19T08:45:02;20.80;97.40
21338;DHT22;10827;50.878;4.382;2022-08-19T08:47:36;21.10;99.90
21338;DHT22;10827;50.878;4.382;2022-08-19T08:50:19;20.80;99.90
21338;DHT22;10827;50.878;4.382;2022-08-19T08:52:52;20.60;98.40
21338;DHT22;10827;50.878;4.382;2022-08-19T08:55:26;20.70;99.90
21338;DHT22;10827;50.878;4.382;2022-08-19T08:58:00;20.90;99.90
21338;DHT22;10827;50.878;4.382;2022-08-19T09:00:30;20.70;99.90
21338;DHT22;10827;50.878;4.382;2022-08-19T09:02:58;21.00;98.10
21338;DHT22;10827;50.878;4.382;2022-08-19T09:05:41;21.00;99.90
21338;DHT22;10827;50.878;4.382;2022-08-19T09:08:16;20.90;99.90
21338;DHT22;10827;50.878;4.382;2022-08-19T09:10:52;20.90;94.60
21338;DHT22;10827;50.878;4.382;2022-08-19T09:16:24;20.90;99.90
21338;DHT22;10827;50.878;4.382;2022-08-19T09:18:56;21.20;99.90
21338;DHT22;10827;50.878;4.382;2022-08-19T09:21:24;21.10;99.90
21338;DHT22;10827;50.878;4.382;2022-08-19T09:23:51;21.10;99.90
21338;DHT22;10827;50.878;4.382;2022-08-19T09:26:19;21.20;99.90
21338;DHT22;10827;50.878;4.382;2022-08-19T09:28:49;21.30;98.50
21338;DHT22;10827;50.878;4.382;2022-08-19T09:31:22;21.60;97.00
21338;DHT22;10827;50.878;4.382;2022-08-19T09:33:49;21.50;93.10
21338;DHT22;10827;50.878;4.382;2022-08-19T09:36:17;21.80;90.90
21338;DHT22;10827;50.878;4.382;2022-08-19T09:38:44;21.70;90.90
21338;DHT22;10827;50.878;4.382;2022-08-19T09:41:16;21.70;82.80
21338;DHT22;10827;50.878;4.382;2022-08-19T09:43:45;21.50;90.70
21338;DHT22;10827;50.878;4.382;2022-08-19T09:46:11;21.50;91.50
21338;DHT22;10827;50.878;4.382;2022-08-19T09:48:39;21.40;95.60
21338;DHT22;10827;50.878;4.382;2022-08-19T09:51:12;21.30;97.50
21338;DHT22;10827;50.878;4.382;2022-08-19T09:53:41;21.40;77.00
21338;DHT22;10827;50.878;4.382;2022-08-19T09:56:08;21.70;87.90
21338;DHT22;10827;50.878;4.382;2022-08-19T09:58:34;21.40;87.40
21338;DHT22;10827;50.878;4.382;2022-08-19T10:01:02;21.60;92.20
21338;DHT22;10827;50.878;4.382;2022-08-19T10:03:29;22.00;85.50
21338;DHT22;10827;50.878;4.382;2022-08-19T10:05:55;22.10;68.10
21338;DHT22;10827;50.878;4.382;2022-08-19T10:08:27;21.90;79.40
21338;DHT22;10827;50.878;4.382;2022-08-19T10:10:55;21.80;82.10
21338;DHT22;10827;50.878;4.382;2022-08-19T10:13:24;22.00;70.50
21338;DHT22;10827;50.878;4.382;2022-08-19T10:15:56;21.80;82.10
21338;DHT22;10827;50.878;4.382;2022-08-19T10:18:25;21.60;70.20
21338;DHT22;10827;50.878;4.382;2022-08-19T10:20:51;21.70;92.70
21338;DHT22;10827;50.878;4.382;2022-08-19T10:23:20;21.70;91.40
21338;DHT22;10827;50.878;4.382;2022-08-19T10:25:47;21.70;95.80
21338;DHT22;10827;50.878;4.382;2022-08-19T10:28:13;21.70;90.40
21338;DHT22;10827;50.878;4.382;2022-08-19T10:30:40;21.80;94.70
21338;DHT22;10827;50.878;4.382;2022-08-19T10:33:06;21.80;90.50
21338;DHT22;10827;50.878;4.382;2022-08-19T10:35:32;21.70;92.50
21338;DHT22;10827;50.878;4.382;2022-08-19T10:37:58;21.70;94.30
21338;DHT22;10827;50.878;4.382;2022-08-19T10:40:26;21.60;96.60
21338;DHT22;10827;50.878;4.382;2022-08-19T10:42:52;21.60;95.60
21338;DHT22;10827;50.878;4.382;2022-08-19T10:45:18;21.50;94.80
21338;DHT22;10827;50.878;4.382;2022-08-19T10:47:44;21.40;96.90
21338;DHT22;10827;50.878;4.382;2022-08-19T10:50:10;21.40;95.10
21338;DHT22;10827;50.878;4.382;2022-08-19T10:52:54;21.60;99.50
21338;DHT22;10827;50.878;4.382;2022-08-19T10:55:23;21.60;95.60
21338;DHT22;10827;50.878;4.382;2022-08-19T10:58:16;21.30;86.80
21338;DHT22;10827;50.878;4.382;2022-08-19T11:00:43;21.60;95.10
21338;DHT22;10827;50.878;4.382;2022-08-19T11:03:09;21.60;99.90
21338;DHT22;10827;50.878;4.382;2022-08-19T11:05:35;21.40;99.90
21338;DHT22;10827;50.878;4.382;2022-08-19T11:08:03;21.60;99.90
21338;DHT22;10827;50.878;4.382;2022-08-19T11:10:28;21.30;99.90
21338;DHT22;10827;50.878;4.382;2022-08-19T11:12:54;21.50;99.90
21338;DHT22;10827;50.878;4.382;2022-08-19T11:15:21;21.50;99.90
21338;DHT22;10827;50.878;4.382;2022-08-19T11:17:47;21.50;99.90
21338;DHT22;10827;50.878;4.382;2022-08-19T11:20:14;21.60;99.90
21338;DHT22;10827;50.878;4.382;2022-08-19T11:22:41;21.80;98.50
21338;DHT22;10827;50.878;4.382;2022-08-19T11:25:08;21.80;98.40
21338;DHT22;10827;50.878;4.382;2022-08-19T11:27:38;22.10;98.40
21338;DHT22;10827;50.878;4.382;2022-08-19T11:30:05;24.30;92.20
21338;DHT22;10827;50.878;4.382;2022-08-19T11:32:32;22.20;85.60
21338;DHT22;10827;50.878;4.382;2022-08-19T11:34:59;22.30;82.40
21338;DHT22;10827;50.878;4.382;2022-08-19T11:37:24;22.20;75.40
21338;DHT22;10827;50.878;4.382;2022-08-19T11:39:50;22.30;57.80
21338;DHT22;10827;50.878;4.382;2022-08-19T11:42:17;22.20;77.70
21338;DHT22;10827;50.878;4.382;2022-08-19T11:45:02;22.30;63.60
21338;DHT22;10827;50.878;4.382;2022-08-19T11:47:29;21.90;91.20
21338;DHT22;10827;50.878;4.382;2022-08-19T11:49:56;21.90;91.80
21338;DHT22;10827;50.878;4.382;2022-08-19T11:52:22;22.10;92.20
21338;DHT22;10827;50.878;4.382;2022-08-19T11:54:48;22.10;89.50
21338;DHT22;10827;50.878;4.382;2022-08-19T11:57:13;22.20;72.80
21338;DHT22;10827;50.878;4.382;2022-08-19T11:59:47;22.70;56.80
21338;DHT22;10827;50.878;4.382;2022-08-19T12:02:12;22.80;48.00
21338;DHT22;10827;50.878;4.382;2022-08-19T12:04:40;23.00;42.00
21338;DHT22;10827;50.878;4.382;2022-08-19T12:09:32;23.20;33.80
21338;DHT22;10827;50.878;4.382;2022-08-19T12:12:00;23.80;14.80
21338;DHT22;10827;50.878;4.382;2022-08-19T12:14:27;23.70;2.00
21338;DHT22;10827;50.878;4.382;2022-08-19T12:16:55;24.20;1.00
21338;DHT22;10827;50.878;4.382;2022-08-19T12:19:21;24.70;1.00
21338;DHT22;10827;50.878;4.382;2022-08-19T12:21:47;24.10;1.00
21338;DHT22;10827;50.878;4.382;2022-08-19T12:24:13;24.40;1.00
21338;DHT22;10827;50.878;4.382;2022-08-19T12:26:39;24.20;1.00
21338;DHT22;10827;50.878;4.382;2022-08-19T12:29:06;24.30;1.00
21338;DHT22;10827;50.878;4.382;2022-08-19T12:31:33;24.20;1.00
21338;DHT22;10827;50.878;4.382;2022-08-19T12:34:00;24.20;1.00
21338;DHT22;10827;50.878;4.382;2022-08-19T12:36:26;24.10;1.00
21338;DHT22;10827;50.878;4.382;2022-08-19T12:38:52;24.10;1.00
21338;DHT22;10827;50.878;4.382;2022-08-19T12:41:19;24.00;1.00
21338;DHT22;10827;50.878;4.382;2022-08-19T12:43:47;24.10;1.00
21338;DHT22;10827;50.878;4.382;2022-08-19T12:46:15;24.30;1.00
21338;DHT22;10827;50.878;4.382;2022-08-19T12:51:12;23.70;1.00
21338;DHT22;10827;50.878;4.382;2022-08-19T12:53:39;23.90;1.00
21338;DHT22;10827;50.878;4.382;2022-08-19T12:56:06;23.90;1.00
21338;DHT22;10827;50.878;4.382;2022-08-19T12:58:32;24.10;1.00
21338;DHT22;10827;50.878;4.382;2022-08-19T13:01:13;24.10;1.00
21338;DHT22;10827;50.878;4.382;2022-08-19T13:03:39;24.30;1.00
21338;DHT22;10827;50.878;4.382;2022-08-19T13:06:05;24.30;1.00
21338;DHT22;10827;50.878;4.382;2022-08-19T13:08:31;24.40;1.00
21338;DHT22;10827;50.878;4.382;2022-08-19T13:10:57;24.50;1.00
21338;DHT22;10827;50.878;4.382;2022-08-19T13:13:23;24.90;1.00
21338;DHT22;10827;50.878;4.382;2022-08-19T13:15:50;24.60;1.00
21338;DHT22;10827;50.878;4.382;2022-08-19T13:18:16;24.70;1.00
21338;DHT22;10827;50.878;4.382;2022-08-19T13:20:42;24.50;1.00
21338;DHT22;10827;50.878;4.382;2022-08-19T13:23:08;24.90;1.00
21338;DHT22;10827;50.878;4.382;2022-08-19T13:25:35;24.60;1.00
21338;DHT22;10827;50.878;4.382;2022-08-19T13:28:02;24.60;1.00
21338;DHT22;10827;50.878;4.382;2022-08-19T13:30:27;24.80;1.00
21338;DHT22;10827;50.878;4.382;2022-08-19T13:33:12;24.80;1.00
21338;DHT22;10827;50.878;4.382;2022-08-19T13:35:48;24.80;1.00
21338;DHT22;10827;50.878;4.382;2022-08-19T13:38:20;25.00;1.00
21338;DHT22;10827;50.878;4.382;2022-08-19T13:40:47;25.00;1.00
21338;DHT22;10827;50.878;4.382;2022-08-19T13:43:15;25.30;1.00
21338;DHT22;10827;50.878;4.382;2022-08-19T13:45:43;25.20;1.00
21338;DHT22;10827;50.878;4.382;2022-08-19T13:48:10;22.80;1.00
21338;DHT22;10827;50.878;4.382;2022-08-19T13:50:42;25.70;1.00
21338;DHT22;10827;50.878;4.382;2022-08-19T13:53:09;25.90;1.00
21338;DHT22;10827;50.878;4.382;2022-08-19T13:55:38;25.30;1.00
21338;DHT22;10827;50.878;4.382;2022-08-19T13:58:03;24.90;1.00
21338;DHT22;10827;50.878;4.382;2022-08-19T14:00:34;25.00;1.00
21338;DHT22;10827;50.878;4.382;2022-08-19T14:03:01;24.90;1.00
21338;DHT22;10827;50.878;4.382;2022-08-19T14:05:28;25.10;1.00
21338;DHT22;10827;50.878;4.382;2022-08-19T14:07:55;24.80;1.00
21338;DHT22;10827;50.878;4.382;2022-08-19T14:10:22;24.40;1.00
21338;DHT22;10827;50.878;4.382;2022-08-19T14:12:49;23.90;1.00
21338;DHT22;10827;50.878;4.382;2022-08-19T14:15:15;23.60;4.10
21338;DHT22;10827;50.878;4.382;2022-08-19T14:17:43;23.40;38.80
21338;DHT22;10827;50.878;4.382;2022-08-19T14:20:11;22.90;83.40
21338;DHT22;10827;50.878;4.382;2022-08-19T14:22:40;22.60;98.30
21338;DHT22;10827;50.878;4.382;2022-08-19T14:25:08;22.30;98.40
21338;DHT22;10827;50.878;4.382;2022-08-19T14:27:38;22.10;99.90
21338;DHT22;10827;50.878;4.382;2022-08-19T14:30:07;22.10;99.90
21338;DHT22;10827;50.878;4.382;2022-08-19T14:32:33;22.20;99.90
21338;DHT22;10827;50.878;4.382;2022-08-19T14:39:51;22.30;99.90
21338;DHT22;10827;50.878;4.382;2022-08-19T14:42:18;22.50;99.90
21338;DHT22;10827;50.878;4.382;2022-08-19T14:44:44;23.10;83.90
21338;DHT22;10827;50.878;4.382;2022-08-19T14:49:36;22.50;94.40
21338;DHT22;10827;50.878;4.382;2022-08-19T14:52:03;23.00;98.30
21338;DHT22;10827;50.878;4.382;2022-08-19T14:54:30;22.50;99.90
21338;DHT22;10827;50.878;4.382;2022-08-19T14:56:56;22.60;99.90
21338;DHT22;10827;50.878;4.382;2022-08-19T14:59:21;22.90;98.60
21338;DHT22;10827;50.878;4.382;2022-08-19T15:01:47;23.00;93.00
21338;DHT22;10827;50.878;4.382;2022-08-19T15:04:18;23.10;97.10
21338;DHT22;10827;50.878;4.382;2022-08-19T15:06:44;23.00;93.90
21338;DHT22;10827;50.878;4.382;2022-08-19T15:09:11;23.30;62.70
21338;DHT22;10827;50.878;4.382;2022-08-19T15:11:37;23.90;53.80
21338;DHT22;10827;50.878;4.382;2022-08-19T15:14:05;24.40;29.60
21338;DHT22;10827;50.878;4.382;2022-08-19T15:16:31;24.90;5.10
21338;DHT22;10827;50.878;4.382;2022-08-19T15:18:58;25.40;1.00
21338;DHT22;10827;50.878;4.382;2022-08-19T15:21:26;25.50;1.00
21338;DHT22;10827;50.878;4.382;2022-08-19T15:23:52;25.20;1.00
21338;DHT22;10827;50.878;4.382;2022-08-19T15:26:19;25.50;1.00
21338;DHT22;10827;50.878;4.382;2022-08-19T15:28:45;25.60;1.00
21338;DHT22;10827;50.878;4.382;2022-08-19T15:31:12;25.50;1.00
21338;DHT22;10827;50.878;4.382;2022-08-19T15:33:39;25.00;1.00
21338;DHT22;10827;50.878;4.382;2022-08-19T15:36:08;25.10;1.00
21338;DHT22;10827;50.878;4.382;2022-08-19T15:38:34;24.40;1.00
21338;DHT22;10827;50.878;4.382;2022-08-19T15:41:02;24.30;1.00
21338;DHT22;10827;50.878;4.382;2022-08-19T15:43:48;25.00;1.00
21338;DHT22;10827;50.878;4.382;2022-08-19T15:46:19;24.60;1.00
21338;DHT22;10827;50.878;4.382;2022-08-19T15:48:47;24.50;1.00
21338;DHT22;10827;50.878;4.382;2022-08-19T15:51:14;23.90;15.30
21338;DHT22;10827;50.878;4.382;2022-08-19T15:53:41;24.20;12.50
21338;DHT22;10827;50.878;4.382;2022-08-19T15:56:07;24.00;24.30
21338;DHT22;10827;50.878;4.382;2022-08-19T16:01:18;23.70;25.40
21338;DHT22;10827;50.878;4.382;2022-08-19T16:03:58;23.90;36.20
21338;DHT22;10827;50.878;4.382;2022-08-19T16:06:47;24.00;22.90
21338;DHT22;10827;50.878;4.382;2022-08-19T16:09:15;23.80;55.40
21338;DHT22;10827;50.878;4.382;2022-08-19T16:11:41;23.60;64.50
21338;DHT22;10827;50.878;4.382;2022-08-19T16:14:08;23.40;90.00
21338;DHT22;10827;50.878;4.382;2022-08-19T16:16:35;23.30;99.10
21338;DHT22;10827;50.878;4.382;2022-08-19T16:19:04;23.20;92.40
21338;DHT22;10827;50.878;4.382;2022-08-19T16:21:34;23.40;98.70
21338;DHT22;10827;50.878;4.382;2022-08-19T16:24:03;23.50;99.90
21338;DHT22;10827;50.878;4.382;2022-08-19T16:28:57;23.30;99.90